createdAt,value
2022-12-06T06:24:02.193Z,53.07
2022-12-06T06:26:36.339Z,54.87
2022-12-06T06:29:04.996Z,50.90
2022-12-06T06:31:32.344Z,57.47
2022-12-06T06:34:01.537Z,56.40
2022-12-06T06:36:28.780Z,56.77
2022-12-06T06:38:56.116Z,56.27
2022-12-06T06:41:23.418Z,56.80
2022-12-06T06:43:50.691Z,57.27
2022-12-06T06:46:18.021Z,55.37
2022-12-06T06:48:45.460Z,54.07
2022-12-06T06:51:14.866Z,51.80
2022-12-06T06:53:42.275Z,55.70
2022-12-06T06:56:09.605Z,54.40
2022-12-06T06:58:36.974Z,54.73
2022-12-06T07:01:05.851Z,59.57
2022-12-06T07:03:33.288Z,54.73
2022-12-06T07:06:01.839Z,56.27
2022-12-06T07:09:02.269Z,54.50
2022-12-06T07:11:29.569Z,53.33
2022-12-06T07:13:57.053Z,51.23
2022-12-06T07:16:24.489Z,51.50
2022-12-06T07:18:51.899Z,53.17
2022-12-06T07:21:19.265Z,54.03
2022-12-06T07:23:46.731Z,55.20
2022-12-06T07:26:16.027Z,52.13
2022-12-06T07:28:44.636Z,51.03
2022-12-06T07:31:22.601Z,51.60
2022-12-06T07:33:52.356Z,54.20
2022-12-06T07:36:19.951Z,52.03
2022-12-06T07:38:51.537Z,54.60
2022-12-06T07:41:38.327Z,48.63
2022-12-06T07:44:32.232Z,51.37
2022-12-06T07:47:01.026Z,51.70
2022-12-06T07:49:28.413Z,53.23
2022-12-06T07:51:56.012Z,50.80
2022-12-06T07:54:24.160Z,54.60
2022-12-06T07:56:51.534Z,57.17
2022-12-06T07:59:19.567Z,55.27
2022-12-06T08:01:46.992Z,57.80
2022-12-06T08:04:14.650Z,56.97
2022-12-06T08:06:41.995Z,60.57
2022-12-06T08:09:09.578Z,59.03
2022-12-06T08:11:37.097Z,64.47
2022-12-06T08:14:04.966Z,60.40
2022-12-06T08:16:32.609Z,65.83
2022-12-06T08:19:00.015Z,65.10
2022-12-06T08:21:29.637Z,65.27
2022-12-06T08:23:57.061Z,65.60
2022-12-06T08:26:24.711Z,72.40
2022-12-06T08:28:52.663Z,70.53
2022-12-06T08:31:21.413Z,71.13
2022-12-06T08:33:48.920Z,73.13
2022-12-06T08:36:17.852Z,75.57
2022-12-06T08:38:45.576Z,73.97
2022-12-06T08:41:32.368Z,77.50
2022-12-06T08:44:02.832Z,76.80
2022-12-06T08:46:30.896Z,77.63
2022-12-06T08:48:58.470Z,78.87
2022-12-06T08:51:26.031Z,77.43
2022-12-06T08:53:55.489Z,77.57
2022-12-06T08:56:24.969Z,75.17
2022-12-06T08:58:53.880Z,79.47
2022-12-06T09:01:22.536Z,73.33
2022-12-06T09:03:49.867Z,78.37
2022-12-06T09:06:18.229Z,78.70
2022-12-06T09:08:46.419Z,78.57
2022-12-06T09:11:14.797Z,77.53
2022-12-06T09:13:42.191Z,76.47
2022-12-06T09:16:10.914Z,76.20
2022-12-06T09:18:38.376Z,78.53
2022-12-06T09:21:06.861Z,80.80
2022-12-06T09:23:34.760Z,81.67
2022-12-06T09:26:05.341Z,91.60
2022-12-06T09:28:32.851Z,79.77
2022-12-06T09:31:00.416Z,78.00
2022-12-06T09:33:30.539Z,76.60
2022-12-06T09:35:58.669Z,83.33
2022-12-06T09:38:28.640Z,79.17
2022-12-06T09:41:47.193Z,78.40
2022-12-06T09:44:29.554Z,78.83
2022-12-06T09:46:57.084Z,82.33
2022-12-06T09:49:24.403Z,84.67
2022-12-06T09:52:00.866Z,81.10
2022-12-06T09:54:49.069Z,78.17
2022-12-06T09:57:39.049Z,78.17
2022-12-06T10:00:14.568Z,78.70
2022-12-06T10:03:03.848Z,73.00
2022-12-06T10:05:38.933Z,77.70
2022-12-06T10:08:25.242Z,74.63
2022-12-06T10:10:57.642Z,72.70
2022-12-06T10:13:57.178Z,77.93
2022-12-06T10:16:36.433Z,78.93
2022-12-06T10:19:38.801Z,75.63
2022-12-06T10:22:09.015Z,81.73
2022-12-06T10:24:42.333Z,74.43
2022-12-06T10:27:11.912Z,78.47
2022-12-06T10:29:41.546Z,81.17
2022-12-06T10:32:32.402Z,79.17
2022-12-06T10:35:07.218Z,82.33
2022-12-06T10:37:43.388Z,80.73
2022-12-06T10:40:17.433Z,82.27
2022-12-06T10:42:49.862Z,85.43
2022-12-06T10:45:37.565Z,88.10
2022-12-06T10:50:57.015Z,89.73
2022-12-06T10:53:26.852Z,81.97
2022-12-06T10:56:17.485Z,85.33
2022-12-06T10:58:47.999Z,88.63
2022-12-06T11:01:28.526Z,91.07
2022-12-06T11:03:58.952Z,100.50
2022-12-06T11:06:32.924Z,90.40
2022-12-06T11:09:08.060Z,95.87
2022-12-06T11:11:37.339Z,93.37
2022-12-06T11:14:04.668Z,93.03
2022-12-06T11:16:34.521Z,88.87
2022-12-06T11:19:07.709Z,86.80
2022-12-06T11:21:58.836Z,86.07
2022-12-06T11:24:26.254Z,98.53
2022-12-06T11:27:15.721Z,89.40
2022-12-06T11:29:44.023Z,91.20
2022-12-06T11:32:13.293Z,88.90
2022-12-06T11:34:46.078Z,87.43
2022-12-06T11:37:22.019Z,86.50
2022-12-06T11:39:51.421Z,87.93
2022-12-06T11:42:22.122Z,83.17
2022-12-06T11:44:52.967Z,77.63
2022-12-06T11:47:22.068Z,80.40
2022-12-06T11:49:50.998Z,87.73
2022-12-06T11:52:28.775Z,83.90
2022-12-06T11:54:58.753Z,73.70
2022-12-06T11:57:31.789Z,78.37
2022-12-06T12:00:14.828Z,82.40
2022-12-06T12:02:42.910Z,80.70
2022-12-06T12:05:22.376Z,82.20
2022-12-06T12:07:55.825Z,87.63
2022-12-06T12:10:29.521Z,93.50
2022-12-06T12:13:15.978Z,87.83
2022-12-06T12:15:50.558Z,92.30
2022-12-06T12:18:24.778Z,98.83
2022-12-06T12:20:54.057Z,92.73
2022-12-06T12:23:27.775Z,103.43
2022-12-06T12:26:00.304Z,95.50
2022-12-06T12:28:29.140Z,103.27
2022-12-06T12:30:57.546Z,99.70
2022-12-06T12:33:28.727Z,103.10
2022-12-06T12:36:16.450Z,106.73
2022-12-06T12:38:57.119Z,98.90
2022-12-06T12:41:26.971Z,102.70
2022-12-06T12:44:28.948Z,104.63
2022-12-06T12:47:00.638Z,96.77
2022-12-06T12:49:30.259Z,104.87
2022-12-06T12:51:58.004Z,103.40
2022-12-06T12:54:27.626Z,108.73
2022-12-06T12:56:56.454Z,108.80
2022-12-06T12:59:24.979Z,124.97
2022-12-06T13:01:52.903Z,106.20
2022-12-06T13:04:27.046Z,105.13
2022-12-06T13:07:23.783Z,106.93
2022-12-06T13:09:54.556Z,107.23
2022-12-06T13:12:36.022Z,113.73
2022-12-06T13:15:07.982Z,110.67
2022-12-06T13:17:37.420Z,104.93
2022-12-06T13:20:16.081Z,104.20
2022-12-06T13:22:45.542Z,110.63
2022-12-06T13:25:12.880Z,111.80
2022-12-06T13:27:42.352Z,113.00
2022-12-06T13:30:15.556Z,113.43
2022-12-06T13:32:44.962Z,121.27
2022-12-06T13:35:27.455Z,111.83
2022-12-06T13:37:59.088Z,121.03
2022-12-06T13:40:33.263Z,111.83
2022-12-06T13:43:01.453Z,109.93
2022-12-06T13:45:41.111Z,112.27
2022-12-06T13:48:34.780Z,115.97
2022-12-06T13:51:03.607Z,116.27
2022-12-06T13:53:35.887Z,111.70
2022-12-06T13:56:39.004Z,116.53
2022-12-06T13:59:15.237Z,116.33
2022-12-06T14:01:46.782Z,105.20
2022-12-06T14:07:02.754Z,113.30
2022-12-06T14:10:11.131Z,112.20
2022-12-06T14:12:39.725Z,118.87
2022-12-06T14:15:10.348Z,106.43
2022-12-06T14:20:29.662Z,107.00
2022-12-06T14:22:57.165Z,99.40
2022-12-06T14:25:28.784Z,98.37
2022-12-06T14:28:04.624Z,96.77
2022-12-06T14:30:32.627Z,90.23
2022-12-06T14:33:00.192Z,100.83
2022-12-06T14:35:38.683Z,94.03
2022-12-06T14:38:25.777Z,86.27
2022-12-06T14:41:12.030Z,93.77
2022-12-06T14:43:40.137Z,85.50
2022-12-06T14:46:08.543Z,83.77
2022-12-06T14:51:43.136Z,92.97
2022-12-06T14:54:24.406Z,97.20
2022-12-06T14:56:51.887Z,88.17
2022-12-06T14:59:47.351Z,85.10
2022-12-06T15:02:26.254Z,90.07
2022-12-06T15:04:53.730Z,86.53
2022-12-06T15:07:50.232Z,91.13
2022-12-06T15:10:30.194Z,92.50
2022-12-06T15:13:07.422Z,87.30
2022-12-06T15:15:42.114Z,84.40
2022-12-06T15:18:12.454Z,85.60
2022-12-06T15:20:40.175Z,84.97
2022-12-06T15:23:20.344Z,86.13
2022-12-06T15:25:47.636Z,85.90
2022-12-06T15:28:19.647Z,82.53
2022-12-06T15:30:49.342Z,84.17
2022-12-06T15:33:17.843Z,78.83
2022-12-06T15:35:45.547Z,81.97
2022-12-06T15:38:13.392Z,79.57
2022-12-06T15:40:47.927Z,77.10
2022-12-06T15:43:25.227Z,76.50
2022-12-06T15:45:54.451Z,77.20
2022-12-06T15:48:21.833Z,82.17
2022-12-06T15:50:49.997Z,72.83
2022-12-06T15:53:20.211Z,80.30
2022-12-06T18:29:14.685Z,57.60
2022-12-06T18:31:42.229Z,58.83
2022-12-06T18:34:11.259Z,59.93
2022-12-06T18:36:39.126Z,56.50
2022-12-06T18:39:12.444Z,57.43
2022-12-06T18:41:43.048Z,57.40
2022-12-06T18:44:11.109Z,56.77
2022-12-06T18:46:39.633Z,52.47
2022-12-06T18:49:08.163Z,56.67
2022-12-06T18:51:38.963Z,55.63
2022-12-06T18:54:11.679Z,59.80
2022-12-06T18:56:40.305Z,61.67
2022-12-06T18:59:11.529Z,55.03
2022-12-06T19:01:40.629Z,60.77
2022-12-06T19:04:13.153Z,59.23
2022-12-06T19:06:40.773Z,59.43
2022-12-06T19:09:10.160Z,61.23
2022-12-06T19:11:41.932Z,58.17
2022-12-06T19:14:10.139Z,63.07
2022-12-06T19:16:39.254Z,57.67
2022-12-06T19:19:12.706Z,59.37
2022-12-06T19:21:43.970Z,57.10
2022-12-06T19:24:16.144Z,58.83
2022-12-06T19:26:44.379Z,58.93
2022-12-06T19:29:11.807Z,58.07
2022-12-06T19:31:39.116Z,59.30
2022-12-06T19:34:06.419Z,60.67
2022-12-06T19:36:36.314Z,59.20
2022-12-06T19:39:06.036Z,57.67
2022-12-06T19:41:57.257Z,61.37
2022-12-06T19:44:32.442Z,65.90
2022-12-06T19:46:59.899Z,65.50
2022-12-06T19:49:27.711Z,62.83
2022-12-06T19:51:55.221Z,65.07
2022-12-06T19:54:24.914Z,61.03
2022-12-06T19:56:53.861Z,65.03
2022-12-06T19:59:22.956Z,66.07
2022-12-06T20:01:51.583Z,68.73
2022-12-06T20:04:21.031Z,64.37
2022-12-06T20:06:48.566Z,68.97
2022-12-06T20:09:17.075Z,63.63
2022-12-06T20:12:04.035Z,72.30
2022-12-06T20:14:32.072Z,63.90
2022-12-06T20:16:59.472Z,67.27
2022-12-06T20:19:26.784Z,70.30
2022-12-06T20:21:54.051Z,69.57
2022-12-06T20:24:22.592Z,64.40
2022-12-06T20:26:50.676Z,63.67
2022-12-06T20:29:19.497Z,59.40
2022-12-06T20:31:48.114Z,67.10
2022-12-06T20:34:15.657Z,64.47
2022-12-06T20:36:43.676Z,53.33
2022-12-06T20:39:17.495Z,57.43
2022-12-06T20:41:44.844Z,62.70
2022-12-06T20:44:12.212Z,62.33
2022-12-06T20:46:39.631Z,62.73
2022-12-06T20:49:06.972Z,60.30
2022-12-06T20:51:34.858Z,58.00
2022-12-06T20:54:03.473Z,56.63
2022-12-06T20:56:32.037Z,47.47
2022-12-06T20:59:00.353Z,47.37
2022-12-06T21:01:29.402Z,43.00
2022-12-06T21:03:57.021Z,43.17
2022-12-06T21:06:25.314Z,42.73
2022-12-06T21:08:53.025Z,40.07
2022-12-06T21:11:23.373Z,40.47
2022-12-06T21:13:54.843Z,40.40
2022-12-06T21:16:23.727Z,40.97
2022-12-06T21:19:05.078Z,42.27
2022-12-06T21:21:36.472Z,40.00
2022-12-06T21:24:06.015Z,38.93
2022-12-06T21:26:33.369Z,40.70
2022-12-06T21:29:00.909Z,38.47
2022-12-06T21:31:29.445Z,40.30
2022-12-06T21:33:57.008Z,35.60
2022-12-06T21:36:24.433Z,37.30
2022-12-06T21:38:52.226Z,35.40
2022-12-06T21:41:19.567Z,33.57
2022-12-06T21:43:47.004Z,36.83
2022-12-06T21:46:15.368Z,33.47
2022-12-06T21:48:42.883Z,33.97
2022-12-06T21:51:11.666Z,39.20
2022-12-06T21:53:39.396Z,43.70
2022-12-06T21:56:09.402Z,43.40
2022-12-06T21:58:37.110Z,42.63
2022-12-06T22:01:08.080Z,42.30
2022-12-06T22:03:36.094Z,43.10
2022-12-06T22:06:10.630Z,42.23
2022-12-06T22:08:38.674Z,48.47
2022-12-06T22:11:10.520Z,43.80
2022-12-06T22:13:38.269Z,40.37
2022-12-06T22:16:07.191Z,38.63
2022-12-06T22:18:37.707Z,35.40
2022-12-06T22:21:12.465Z,36.00
2022-12-06T22:23:39.946Z,32.43
2022-12-06T22:26:08.348Z,32.23
2022-12-06T22:28:35.682Z,33.80
2022-12-06T22:31:13.998Z,33.10
2022-12-06T22:33:41.473Z,34.17
2022-12-06T22:36:09.377Z,33.40
2022-12-06T22:38:36.710Z,30.97
2022-12-06T22:41:05.933Z,31.40
2022-12-06T22:43:33.378Z,35.00
2022-12-06T22:46:08.151Z,33.03
2022-12-06T22:48:35.721Z,33.17
2022-12-06T22:51:13.379Z,36.20
2022-12-06T22:53:41.476Z,33.00
2022-12-06T22:56:09.143Z,33.97
2022-12-06T22:58:36.461Z,34.90
2022-12-06T23:01:16.095Z,36.83
2022-12-06T23:03:44.509Z,34.60
2022-12-06T23:06:11.955Z,34.73
2022-12-06T23:08:39.411Z,34.53
2022-12-06T23:11:08.451Z,30.90
2022-12-06T23:13:42.760Z,38.40
2022-12-06T23:16:12.442Z,36.40
2022-12-06T23:18:40.353Z,36.40
2022-12-06T23:21:09.301Z,37.00
2022-12-06T23:23:37.228Z,39.73
2022-12-06T23:26:12.576Z,39.17
2022-12-06T23:28:40.417Z,39.00
2022-12-06T23:31:09.157Z,38.80
2022-12-06T23:33:36.505Z,37.83
2022-12-06T23:36:04.803Z,38.73
2022-12-06T23:38:32.188Z,36.43
2022-12-06T23:41:06.902Z,35.33
2022-12-06T23:43:34.758Z,36.70
